createdAt,value
2019-04-10T00:00:47.769Z,96498.18
2019-04-10T00:01:37.565Z,96494.10
2019-04-10T00:02:29.283Z,96495.46
2019-04-10T00:03:27.822Z,96490.08
2019-04-10T00:04:12.578Z,96490.88
2019-04-10T00:05:03.385Z,96499.59
2019-04-10T00:05:54.234Z,96494.49
2019-04-10T00:06:46.422Z,96492.33
2019-04-10T00:07:37.472Z,96496.16
2019-04-10T00:08:26.844Z,96492.08
2019-04-10T00:09:23.146Z,96497.52
2019-04-10T00:10:14.415Z,96501.34
2019-04-10T00:11:05.095Z,96493.19
2019-04-10T00:11:56.995Z,96499.52
2019-04-10T00:12:47.653Z,96504.70
2019-04-10T00:13:38.535Z,96501.17
2019-04-10T00:14:28.978Z,96505.56
2019-04-10T00:15:20.590Z,96491.50
2019-04-10T00:16:10.542Z,96500.67
2019-04-10T00:17:00.748Z,96495.33
2019-04-10T00:17:51.961Z,96496.69
2019-04-10T00:18:42.993Z,96493.72
2019-04-10T00:19:35.792Z,96493.47
2019-04-10T00:20:25.411Z,96494.83
2019-04-10T00:21:15.909Z,96498.91
2019-04-10T00:22:06.760Z,96502.98
2019-04-10T00:22:57.311Z,96500.04
2019-04-10T00:23:49.309Z,96507.05
2019-04-10T00:24:40.065Z,96500.27
2019-04-10T00:25:30.165Z,96500.04
2019-04-10T00:26:21.561Z,96501.95
2019-04-10T00:27:10.712Z,96499.54
2019-04-10T00:28:01.313Z,96501.79
2019-04-10T00:28:52.569Z,96502.56
2019-04-10T00:29:44.671Z,96504.25
2019-04-10T00:30:35.413Z,96498.56
2019-04-10T00:31:26.396Z,96496.66
2019-04-10T00:32:16.966Z,96504.56
2019-04-10T00:33:08.230Z,96500.78
2019-04-10T00:33:59.003Z,96500.02
2019-04-10T00:34:50.034Z,96498.95
2019-04-10T00:35:40.399Z,96503.03
2019-04-10T00:36:33.171Z,96500.06
2019-04-10T00:37:27.214Z,96498.45
2019-04-10T00:38:13.864Z,96495.52
2019-04-10T00:39:06.453Z,96500.37
2019-04-10T00:39:57.114Z,96499.81
2019-04-10T00:40:47.911Z,96499.59
2019-04-10T00:41:40.657Z,96507.74
2019-04-10T00:42:31.206Z,96506.61
2019-04-10T00:43:22.597Z,96506.14
2019-04-10T00:44:13.371Z,96503.42
2019-04-10T00:45:03.965Z,96504.52
2019-04-10T00:45:53.655Z,96507.49
2019-04-10T00:46:44.783Z,96510.52
2019-04-10T00:47:35.703Z,96508.59
2019-04-10T00:48:26.014Z,96506.98
2019-04-10T00:49:16.188Z,96496.13
2019-04-10T00:50:06.504Z,96504.83
2019-04-10T00:50:57.084Z,96502.91
2019-04-10T00:51:48.228Z,96499.64
2019-04-10T00:52:38.948Z,96498.84
2019-04-10T00:53:29.761Z,96502.91
2019-04-10T00:54:20.156Z,96497.73
2019-04-10T00:55:11.274Z,96501.80
2019-04-10T00:56:01.956Z,96494.21
2019-04-10T00:56:52.794Z,96495.57
2019-04-10T00:57:42.801Z,96498.28
2019-04-10T00:58:33.265Z,96494.77
2019-04-10T00:59:24.598Z,96496.38
2019-04-10T01:00:15.167Z,96490.13
2019-04-10T01:01:05.713Z,96497.17
2019-04-10T01:02:03.255Z,96492.55
2019-04-10T01:02:53.653Z,96489.02
2019-04-10T01:03:44.163Z,96498.45
2019-04-10T01:04:34.300Z,96493.27
2019-04-10T01:05:28.643Z,96494.63
2019-04-10T01:06:19.888Z,96490.80
2019-04-10T01:07:10.681Z,96486.98
2019-04-10T01:08:00.806Z,96488.55
2019-04-10T01:08:51.670Z,96486.89
2019-04-10T01:09:41.720Z,96486.34
2019-04-10T01:10:34.526Z,96487.39
2019-04-10T01:11:23.956Z,96491.39
2019-04-10T01:12:14.743Z,96493.30
2019-04-10T01:13:05.245Z,96494.61
2019-04-10T01:13:55.531Z,96490.75
2019-04-10T01:14:47.659Z,96498.34
2019-04-10T01:15:38.602Z,96497.80
2019-04-10T01:16:28.466Z,96495.02
2019-04-10T01:17:19.510Z,96495.49
2019-04-10T01:18:10.934Z,96489.75
2019-04-10T01:19:01.632Z,96494.55
2019-04-10T01:19:50.735Z,96500.23
2019-04-10T01:20:41.840Z,96496.41
2019-04-10T01:21:34.646Z,96500.73
2019-04-10T01:22:25.349Z,96497.43
2019-04-10T01:23:16.120Z,96499.84
2019-04-10T01:24:07.312Z,96496.27
2019-04-10T01:24:58.536Z,96501.92
2019-04-10T01:25:49.086Z,96503.53
2019-04-10T01:26:41.698Z,96501.56
2019-04-10T01:27:32.804Z,96506.41
2019-04-10T01:28:22.896Z,96501.78
2019-04-10T01:29:13.442Z,96507.47
2019-04-10T01:30:04.331Z,96504.20
2019-04-10T01:30:54.935Z,96506.05
2019-04-10T01:31:46.403Z,96498.12
2019-04-10T01:32:39.779Z,96503.25
2019-04-10T01:33:30.366Z,96503.25
2019-04-10T01:34:21.085Z,96506.47
2019-04-10T01:35:13.978Z,96501.58
2019-04-10T01:36:06.940Z,96495.03
2019-04-10T01:36:57.284Z,96498.55
2019-04-10T01:37:53.476Z,96500.17
2019-04-10T01:38:41.874Z,96499.61
2019-04-10T01:39:32.602Z,96497.95
2019-04-10T01:40:23.407Z,96501.47
2019-04-10T01:41:13.896Z,96494.89
2019-04-10T01:42:04.356Z,96502.99
2019-04-10T01:43:09.955Z,96502.99
2019-04-10T01:43:46.869Z,96495.64
2019-04-10T01:44:41.210Z,96493.72
2019-04-10T01:45:32.098Z,96493.38
2019-04-10T01:46:24.415Z,96493.94
2019-04-10T01:47:15.125Z,96487.39
2019-04-10T01:48:05.871Z,96484.67
2019-04-10T01:48:56.006Z,96493.33
2019-04-10T01:49:47.388Z,96497.66
2019-04-10T01:50:39.224Z,96506.03
2019-04-10T01:51:31.551Z,96489.96
2019-04-10T01:52:22.733Z,96495.41
2019-04-10T01:53:15.057Z,96494.76
2019-04-10T01:54:06.886Z,96494.76
2019-04-10T01:54:57.738Z,96498.28
2019-04-10T01:55:49.222Z,96503.97
2019-04-10T01:56:43.873Z,96500.94
2019-04-10T01:57:34.619Z,96505.48
2019-04-10T01:58:25.300Z,96502.16
2019-04-10T01:59:15.922Z,96500.80
2019-04-10T02:00:06.776Z,96499.66
2019-04-10T02:01:26.210Z,96504.23
2019-04-10T02:02:25.382Z,96499.34
2019-04-10T02:03:15.978Z,96488.71
2019-04-10T02:04:08.876Z,96499.03
2019-04-10T02:05:00.639Z,96496.31
2019-04-10T02:05:49.963Z,96492.23
2019-04-10T02:06:43.401Z,96492.48
2019-04-10T02:07:34.088Z,96487.26
2019-04-10T02:08:25.833Z,96489.42
2019-04-10T02:09:16.722Z,96492.14
2019-04-10T02:10:08.227Z,96493.20
2019-04-10T02:10:58.880Z,96491.28
2019-04-10T02:11:50.227Z,96489.36
2019-04-10T02:12:43.788Z,96483.36
2019-04-10T02:13:33.894Z,96490.38
2019-04-10T02:14:24.552Z,96489.27
2019-04-10T02:15:15.936Z,96482.47
2019-04-10T02:16:06.224Z,96488.97
2019-04-10T02:16:59.044Z,96484.55
2019-04-10T02:17:49.762Z,96485.34
2019-04-10T02:18:41.584Z,96483.43
2019-04-10T02:19:32.262Z,96484.23
2019-04-10T02:20:22.965Z,96484.73
2019-04-10T02:21:14.137Z,96481.77
2019-04-10T02:22:05.104Z,96478.73
2019-04-10T02:22:56.188Z,96484.64
2019-04-10T02:23:46.960Z,96480.00
2019-04-10T02:24:38.923Z,96478.08
2019-04-10T02:25:30.621Z,96476.16
2019-04-10T02:26:21.315Z,96472.88
2019-04-10T02:27:12.725Z,96476.62
2019-04-10T02:28:04.869Z,96473.91
2019-04-10T02:28:55.494Z,96471.18
2019-04-10T02:29:44.534Z,96463.82
2019-04-10T02:30:37.301Z,96475.76
2019-04-10T02:31:28.572Z,96473.84
2019-04-10T02:32:18.772Z,96475.76
2019-04-10T02:33:08.474Z,96476.01
2019-04-10T02:33:59.921Z,96470.78
2019-04-10T02:34:50.608Z,96469.41
2019-04-10T02:35:40.348Z,96472.39
2019-04-10T02:36:31.551Z,96471.02
2019-04-10T02:37:22.808Z,96465.02
2019-04-10T02:38:33.891Z,96471.02
2019-04-10T02:39:15.168Z,96469.91
2019-04-10T02:40:00.064Z,96466.08
2019-04-10T02:40:47.474Z,96469.36
2019-04-10T02:41:38.657Z,96467.99
2019-04-10T02:42:30.093Z,96473.13
2019-04-10T02:43:20.917Z,96468.23
2019-04-10T02:44:10.285Z,96461.44
2019-04-10T02:45:02.232Z,96471.17
2019-04-10T02:45:51.530Z,96471.77
2019-04-10T02:46:42.827Z,96468.45
2019-04-10T02:47:34.578Z,96462.70
2019-04-10T02:48:25.206Z,96467.34
2019-04-10T02:49:16.358Z,96469.82
2019-04-10T02:50:07.897Z,96463.26
2019-04-10T02:50:59.570Z,96466.47
2019-04-10T02:51:49.949Z,96469.20
2019-04-10T02:52:41.215Z,96464.55
2019-04-10T02:53:31.743Z,96465.11
2019-04-10T02:54:22.836Z,96464.31
2019-04-10T02:55:14.424Z,96465.11
2019-04-10T02:56:05.395Z,96468.64
2019-04-10T02:56:54.933Z,96468.86
2019-04-10T02:57:47.374Z,96468.08
2019-04-10T02:58:38.536Z,96470.22
2019-04-10T02:59:29.256Z,96468.86
2019-04-10T03:00:20.294Z,96462.05
2019-04-10T03:01:11.217Z,96466.13
2019-04-10T03:02:02.442Z,96461.83
2019-04-10T03:02:55.158Z,96462.64
2019-04-10T03:03:44.690Z,96458.31
2019-04-10T03:04:35.217Z,96456.95
2019-04-10T03:05:27.100Z,96463.20
2019-04-10T03:06:15.686Z,96462.05
2019-04-10T03:07:07.697Z,96467.28
2019-04-10T03:07:58.247Z,96459.67
2019-04-10T03:09:02.137Z,96461.83
2019-04-10T03:09:52.919Z,96465.67
2019-04-10T03:10:37.180Z,96465.67
2019-04-10T03:11:22.218Z,96461.34
2019-04-10T03:12:13.032Z,96458.62
2019-04-10T03:13:02.725Z,96469.51
2019-04-10T03:13:53.514Z,96466.33
2019-04-10T03:14:45.968Z,96469.05
2019-04-10T03:15:34.298Z,96463.35
2019-04-10T03:16:24.843Z,96468.55
2019-04-10T03:17:15.586Z,96465.58
2019-04-10T03:18:06.483Z,96471.58
2019-04-10T03:18:56.996Z,96472.73
2019-04-10T03:19:47.111Z,96467.28
2019-04-10T03:20:38.404Z,96467.59
2019-04-10T03:21:29.148Z,96470.63
2019-04-10T03:22:18.853Z,96468.24
2019-04-10T03:23:09.884Z,96476.41
2019-04-10T03:24:00.785Z,96468.24
2019-04-10T03:24:51.442Z,96474.86
2019-04-10T03:25:42.045Z,96477.03
2019-04-10T03:26:34.082Z,96475.77
2019-04-10T03:27:25.978Z,96478.48
2019-04-10T03:28:16.660Z,96472.55
2019-04-10T03:29:07.352Z,96480.45
2019-04-10T03:29:56.718Z,96480.45
2019-04-10T03:30:49.415Z,96478.33
2019-04-10T03:31:39.201Z,96479.19
2019-04-10T03:32:59.668Z,96475.66
2019-04-10T03:33:54.441Z,96481.11
2019-04-10T03:34:46.115Z,96481.42
2019-04-10T03:35:38.809Z,96485.03
2019-04-10T03:36:36.274Z,96481.51
2019-04-10T03:37:27.038Z,96482.63
2019-04-10T03:38:18.410Z,96477.52
2019-04-10T03:39:10.682Z,96485.44
2019-04-10T03:40:00.828Z,96481.10
2019-04-10T03:40:51.913Z,96480.86
2019-04-10T03:41:42.385Z,96480.86
2019-04-10T03:42:32.980Z,96483.58
2019-04-10T03:43:23.885Z,96490.13
2019-04-10T03:44:14.591Z,96484.69
2019-04-10T03:45:07.410Z,96484.22
2019-04-10T03:45:57.755Z,96486.95
2019-04-10T03:46:48.939Z,96488.86
2019-04-10T03:47:39.651Z,96486.70
2019-04-10T03:48:29.346Z,96489.42
2019-04-10T03:49:20.005Z,96486.70
2019-04-10T03:50:12.027Z,96489.17
2019-04-10T03:51:03.877Z,96490.31
2019-04-10T03:51:54.591Z,96484.87
2019-04-10T03:52:46.424Z,96481.09
2019-04-10T03:53:38.186Z,96492.78
2019-04-10T03:54:28.843Z,96489.56
2019-04-10T03:55:20.901Z,96489.81
2019-04-10T03:56:13.735Z,96485.48
2019-04-10T03:57:04.574Z,96481.95
2019-04-10T03:57:55.280Z,96484.93
2019-04-10T03:58:47.987Z,96494.45
2019-04-10T03:59:40.035Z,96486.59
2019-04-10T04:00:30.011Z,96481.16
2019-04-10T04:01:20.480Z,96494.76
2019-04-10T04:02:11.632Z,96487.73
2019-04-10T04:03:02.581Z,96491.27
2019-04-10T04:03:53.282Z,96484.46
2019-04-10T04:04:44.366Z,96489.31
2019-04-10T04:05:37.093Z,96491.27
2019-04-10T04:06:27.881Z,96484.68
2019-04-10T04:07:18.166Z,96490.67
2019-04-10T04:08:08.640Z,96487.41
2019-04-10T04:09:06.705Z,96491.73
2019-04-10T04:09:51.512Z,96480.05
2019-04-10T04:10:42.664Z,96490.06
2019-04-10T04:11:33.548Z,96490.06
2019-04-10T04:12:24.619Z,96493.03
2019-04-10T04:13:15.303Z,96489.17
2019-04-10T04:14:06.200Z,96488.95
2019-04-10T04:14:56.927Z,96491.89
2019-04-10T04:15:48.436Z,96482.61
2019-04-10T04:16:39.213Z,96491.27
2019-04-10T04:17:32.539Z,96488.55
2019-04-10T04:18:23.269Z,96490.38
2019-04-10T04:19:15.645Z,96492.30
2019-04-10T04:20:06.408Z,96490.07
2019-04-10T04:20:59.356Z,96497.13
2019-04-10T04:21:50.042Z,96486.15
2019-04-10T04:22:41.115Z,96486.95
2019-04-10T04:23:32.023Z,96500.00
2019-04-10T04:24:25.495Z,96496.38
2019-04-10T04:25:16.913Z,96493.11
2019-04-10T04:26:07.241Z,96503.68
2019-04-10T04:27:01.034Z,96495.21
2019-04-10T04:27:52.473Z,96498.73
2019-04-10T04:28:44.016Z,96493.51
2019-04-10T04:29:36.228Z,96491.84
2019-04-10T04:30:30.313Z,96496.98
2019-04-10T04:31:21.149Z,96503.22
2019-04-10T04:32:15.556Z,96504.25
2019-04-10T04:33:06.584Z,96499.85
2019-04-10T04:33:59.910Z,96503.63
2019-04-10T04:34:50.696Z,96505.45
2019-04-10T04:35:43.152Z,96500.81
2019-04-10T04:36:35.194Z,96498.59
2019-04-10T04:37:26.256Z,96501.86
2019-04-10T04:38:17.826Z,96502.67
2019-04-10T04:39:20.629Z,96506.97
2019-04-10T04:40:03.063Z,96502.82
2019-04-10T04:40:54.905Z,96498.18
2019-04-10T04:41:46.058Z,96496.27
2019-04-10T04:42:36.688Z,96496.73
2019-04-10T04:43:28.489Z,96498.09
2019-04-10T04:44:18.322Z,96497.22
2019-04-10T04:45:10.771Z,96494.16
2019-04-10T04:46:01.229Z,96495.21
2019-04-10T04:46:52.710Z,96498.42
2019-04-10T04:47:43.306Z,96504.64
2019-04-10T04:48:34.674Z,96504.89
2019-04-10T04:49:24.756Z,96499.94
2019-04-10T04:50:16.330Z,96500.95
2019-04-10T04:51:06.749Z,96508.02
2019-04-10T04:51:58.146Z,96508.27
2019-04-10T04:52:49.308Z,96508.97
2019-04-10T04:53:39.830Z,96507.05
2019-04-10T04:54:30.913Z,96504.27
2019-04-10T04:55:21.788Z,96510.52
2019-04-10T04:56:11.560Z,96512.34
2019-04-10T04:57:02.757Z,96510.11
2019-04-10T04:57:53.775Z,96508.19
2019-04-10T04:58:45.631Z,96507.29
2019-04-10T04:59:34.693Z,96517.87
2019-04-10T05:00:26.256Z,96515.05
2019-04-10T05:01:17.010Z,96508.48
2019-04-10T05:02:07.940Z,96520.09
2019-04-10T05:02:59.790Z,96511.36
2019-04-10T05:03:50.466Z,96518.91
2019-04-10T05:04:41.709Z,96521.54
2019-04-10T05:05:31.402Z,96515.44
2019-04-10T05:06:22.333Z,96517.29
2019-04-10T05:07:13.553Z,96512.34
2019-04-10T05:08:05.359Z,96521.22
2019-04-10T05:08:55.392Z,96519.75
2019-04-10T05:09:46.282Z,96522.66
2019-04-10T05:10:37.837Z,96521.75
2019-04-10T05:11:28.658Z,96519.98
2019-04-10T05:12:20.093Z,96523.44
2019-04-10T05:13:10.706Z,96527.99
2019-04-10T05:14:04.968Z,96521.66
2019-04-10T05:14:55.747Z,96521.25
2019-04-10T05:15:46.410Z,96521.72
2019-04-10T05:16:39.468Z,96527.90
2019-04-10T05:17:28.853Z,96527.48
2019-04-10T05:18:19.278Z,96526.83
2019-04-10T05:19:10.206Z,96531.05
2019-04-10T05:20:02.886Z,96530.98
2019-04-10T05:20:52.620Z,96528.96
2019-04-10T05:21:45.662Z,96526.37
2019-04-10T05:22:36.366Z,96527.11
2019-04-10T05:23:27.426Z,96532.70
2019-04-10T05:24:18.649Z,96530.92
2019-04-10T05:25:11.108Z,96532.53
2019-04-10T05:26:02.440Z,96536.77
2019-04-10T05:26:53.555Z,96530.08
2019-04-10T05:27:43.519Z,96532.18
2019-04-10T05:28:34.044Z,96536.41
2019-04-10T05:29:28.317Z,96537.35
2019-04-10T05:30:16.455Z,96531.80
2019-04-10T05:31:07.179Z,96525.70
2019-04-10T05:31:57.472Z,96535.63
2019-04-10T05:32:47.964Z,96536.89
2019-04-10T05:33:38.728Z,96535.34
2019-04-10T05:34:29.537Z,96537.64
2019-04-10T05:35:19.412Z,96538.38
2019-04-10T05:36:10.050Z,96542.61
2019-04-10T05:37:01.018Z,96532.06
2019-04-10T05:37:51.975Z,96542.31
2019-04-10T05:38:43.977Z,96542.45
2019-04-10T05:39:40.573Z,96544.98
2019-04-10T05:40:24.324Z,96538.33
2019-04-10T05:41:15.473Z,96543.92
2019-04-10T05:42:06.428Z,96542.16
2019-04-10T05:42:57.460Z,96545.02
2019-04-10T05:43:48.933Z,96541.05
2019-04-10T05:44:40.203Z,96542.58
2019-04-10T05:45:30.408Z,96538.27
2019-04-10T05:46:21.668Z,96541.16
2019-04-10T05:47:12.139Z,96544.58
2019-04-10T05:48:03.316Z,96546.06
2019-04-10T05:48:54.151Z,96540.97
2019-04-10T05:49:45.049Z,96532.91
2019-04-10T05:50:36.458Z,96548.89
2019-04-10T05:51:28.865Z,96529.66
2019-04-10T05:52:20.035Z,96540.95
2019-04-10T05:53:09.822Z,96535.84
2019-04-10T05:54:00.284Z,96535.97
2019-04-10T05:54:51.648Z,96527.92
2019-04-10T05:55:42.241Z,96537.38
2019-04-10T05:56:34.339Z,96539.91
2019-04-10T05:57:24.603Z,96534.56
2019-04-10T05:58:17.436Z,96533.56
2019-04-10T05:59:09.820Z,96537.45
2019-04-10T05:59:58.762Z,96538.70
2019-04-10T06:00:49.930Z,96533.95
2019-04-10T06:01:42.527Z,96530.53
2019-04-10T06:02:32.113Z,96538.86
2019-04-10T06:03:22.741Z,96532.37
2019-04-10T06:04:13.364Z,96531.16
2019-04-10T06:05:05.296Z,96529.11
2019-04-10T06:05:54.962Z,96532.77
2019-04-10T06:06:48.490Z,96528.33
2019-04-10T06:07:38.156Z,96524.11
2019-04-10T06:08:29.084Z,96530.49
2019-04-10T06:09:20.594Z,96526.87
2019-04-10T06:10:10.825Z,96527.78
2019-04-10T06:11:01.466Z,96525.73
2019-04-10T06:11:53.158Z,96534.05
2019-04-10T06:12:43.074Z,96532.83
2019-04-10T06:13:34.742Z,96532.14
2019-04-10T06:14:26.214Z,96534.19
2019-04-10T06:15:18.977Z,96534.33
2019-04-10T06:16:09.765Z,96536.38
2019-04-10T06:17:02.384Z,96535.35
2019-04-10T06:17:51.042Z,96533.86
2019-04-10T06:18:40.806Z,96537.07
2019-04-10T06:19:32.248Z,96533.64
2019-04-10T06:20:23.000Z,96527.51
2019-04-10T06:21:14.707Z,96529.55
2019-04-10T06:22:05.311Z,96529.42
2019-04-10T06:22:55.845Z,96533.67
2019-04-10T06:23:47.598Z,96525.66
2019-04-10T06:24:36.556Z,96540.86
2019-04-10T06:25:29.412Z,96528.41
2019-04-10T06:26:19.917Z,96534.13
2019-04-10T06:27:10.342Z,96528.88
2019-04-10T06:28:01.485Z,96527.72
2019-04-10T06:28:53.029Z,96529.55
2019-04-10T06:29:45.019Z,96525.12
2019-04-10T06:30:34.936Z,96529.66
2019-04-10T06:31:25.955Z,96529.89
2019-04-10T06:32:17.374Z,96522.75
2019-04-10T06:33:09.583Z,96530.83
2019-04-10T06:34:00.412Z,96523.42
2019-04-10T06:34:50.520Z,96518.98
2019-04-10T06:35:42.092Z,96527.63
2019-04-10T06:36:33.556Z,96521.59
2019-04-10T06:37:24.365Z,96525.00
2019-04-10T06:38:16.890Z,96520.89
2019-04-10T06:39:07.011Z,96524.66
2019-04-10T06:40:07.625Z,96522.73
2019-04-10T06:40:50.386Z,96518.86
2019-04-10T06:41:41.141Z,96521.23
2019-04-10T06:42:35.105Z,96521.47
2019-04-10T06:43:22.550Z,96527.98
2019-04-10T06:44:13.958Z,96529.02
2019-04-10T06:45:05.710Z,96525.11
2019-04-10T06:45:54.503Z,96517.36
2019-04-10T06:46:44.993Z,96527.98
2019-04-10T06:47:36.631Z,96522.14
2019-04-10T06:48:28.389Z,96525.11
2019-04-10T06:49:20.476Z,96533.56
2019-04-10T06:50:10.688Z,96526.71
2019-04-10T06:51:02.194Z,96522.38
2019-04-10T06:51:53.461Z,96523.74
2019-04-10T06:52:43.383Z,96526.48
2019-04-10T06:53:35.254Z,96526.48
2019-04-10T06:54:26.840Z,96530.25
2019-04-10T06:55:16.872Z,96523.41
2019-04-10T06:56:09.793Z,96527.52
2019-04-10T06:56:59.441Z,96528.08
2019-04-10T06:57:55.036Z,96521.47
2019-04-10T06:58:41.482Z,96526.71
2019-04-10T06:59:32.583Z,96530.25
2019-04-10T07:00:23.081Z,96528.08
2019-04-10T07:01:14.686Z,96537.67
2019-04-10T07:02:17.714Z,96524.55
2019-04-10T07:02:56.690Z,96527.84
2019-04-10T07:03:56.534Z,96531.95
2019-04-10T07:04:46.035Z,96523.30
2019-04-10T07:05:40.132Z,96523.30
2019-04-10T07:06:22.234Z,96528.78
2019-04-10T07:07:13.946Z,96531.86
2019-04-10T07:08:10.844Z,96528.65
2019-04-10T07:08:53.376Z,96535.73
2019-04-10T07:09:45.356Z,96531.39
2019-04-10T07:10:48.207Z,96528.08
2019-04-10T07:11:30.434Z,96528.45
2019-04-10T07:12:18.608Z,96530.38
2019-04-10T07:13:10.825Z,96528.55
2019-04-10T07:14:00.273Z,96533.45
2019-04-10T07:14:55.219Z,96533.22
2019-04-10T07:15:45.137Z,96537.33
2019-04-10T07:16:37.235Z,96527.75
2019-04-10T07:17:27.221Z,96534.59
2019-04-10T07:18:20.610Z,96537.89
2019-04-10T07:19:11.662Z,96534.02
2019-04-10T07:20:01.965Z,96526.94
2019-04-10T07:20:57.216Z,96534.49
2019-04-10T07:21:44.529Z,96535.63
2019-04-10T07:22:36.646Z,96535.63
2019-04-10T07:23:29.227Z,96538.37
2019-04-10T07:24:18.802Z,96543.61
2019-04-10T07:25:11.171Z,96531.28
2019-04-10T07:26:01.722Z,96532.09
2019-04-10T07:26:51.424Z,96543.28
2019-04-10T07:27:41.891Z,96531.19
2019-04-10T07:28:33.196Z,96533.33
2019-04-10T07:29:26.663Z,96537.91
2019-04-10T07:30:15.308Z,96535.40
2019-04-10T07:31:08.566Z,96540.52
2019-04-10T07:31:58.359Z,96543.38
2019-04-10T07:32:49.175Z,96541.65
2019-04-10T07:33:40.571Z,96543.25
2019-04-10T07:34:30.324Z,96538.24
2019-04-10T07:35:21.888Z,96540.05
2019-04-10T07:36:14.058Z,96540.15
2019-04-10T07:37:03.920Z,96538.68
2019-04-10T07:37:56.981Z,96545.39
2019-04-10T07:38:46.852Z,96547.47
2019-04-10T07:39:37.658Z,96543.55
2019-04-10T07:40:33.033Z,96547.00
2019-04-10T07:41:22.671Z,96546.53
2019-04-10T07:42:10.220Z,96544.02
2019-04-10T07:43:00.546Z,96546.30
2019-04-10T07:43:55.100Z,96549.27
2019-04-10T07:44:43.799Z,96538.50
2019-04-10T07:45:35.507Z,96544.22
2019-04-10T07:46:26.253Z,96541.48
2019-04-10T07:47:17.446Z,96549.37
2019-04-10T07:48:08.711Z,96543.75
2019-04-10T07:48:58.655Z,96546.49
2019-04-10T07:49:50.352Z,96540.10
2019-04-10T07:50:39.697Z,96546.39
2019-04-10T07:51:29.937Z,96544.65
2019-04-10T07:52:22.331Z,96547.86
2019-04-10T07:53:11.190Z,96540.44
2019-04-10T07:54:04.089Z,96546.02
2019-04-10T07:54:55.148Z,96541.77
2019-04-10T07:55:56.586Z,96544.62
2019-04-10T07:56:37.292Z,96541.19
2019-04-10T07:57:28.500Z,96549.40
2019-04-10T07:58:19.403Z,96533.74
2019-04-10T07:59:09.040Z,96545.24
2019-04-10T08:00:00.931Z,96542.25
2019-04-10T08:00:51.774Z,96549.23
2019-04-10T08:01:42.269Z,96543.47
2019-04-10T08:02:34.158Z,96546.91
2019-04-10T08:03:25.136Z,96549.17
2019-04-10T08:04:15.146Z,96548.92
2019-04-10T08:05:06.413Z,96538.27
2019-04-10T08:05:58.198Z,96546.59
2019-04-10T08:06:48.428Z,96543.13
2019-04-10T08:07:40.594Z,96546.56
2019-04-10T08:08:30.210Z,96546.66
2019-04-10T08:09:21.046Z,96549.48
2019-04-10T08:10:12.830Z,96541.34
2019-04-10T08:11:03.523Z,96539.85
2019-04-10T08:11:56.689Z,96541.88
2019-04-10T08:12:50.275Z,96544.55
2019-04-10T08:13:38.507Z,96550.35
2019-04-10T08:14:29.470Z,96553.18
2019-04-10T08:15:19.326Z,96549.38
2019-04-10T08:16:10.567Z,96554.38
2019-04-10T08:17:00.769Z,96543.25
2019-04-10T08:17:51.914Z,96553.78
2019-04-10T08:18:42.258Z,96549.74
2019-04-10T08:19:35.002Z,96547.08
2019-04-10T08:20:24.552Z,96549.67
2019-04-10T08:21:15.590Z,96545.67
2019-04-10T08:22:06.847Z,96546.32
2019-04-10T08:22:57.379Z,96550.75
2019-04-10T08:23:48.557Z,96544.98
2019-04-10T08:24:38.638Z,96546.22
2019-04-10T08:25:29.582Z,96545.14
2019-04-10T08:26:21.394Z,96552.12
2019-04-10T08:27:11.871Z,96553.00
2019-04-10T08:28:02.912Z,96550.11
2019-04-10T08:28:53.854Z,96545.64
2019-04-10T08:29:44.947Z,96543.88
2019-04-10T08:30:36.222Z,96543.77
2019-04-10T08:31:26.626Z,96545.36
2019-04-10T08:32:18.209Z,96553.23
2019-04-10T08:33:09.883Z,96547.16
2019-04-10T08:34:01.100Z,96547.39
2019-04-10T08:34:51.376Z,96542.34
2019-04-10T08:35:43.003Z,96542.77
2019-04-10T08:36:35.276Z,96541.62
2019-04-10T08:37:26.531Z,96541.47
2019-04-10T08:38:17.957Z,96544.09
2019-04-10T08:39:09.407Z,96550.02
2019-04-10T08:40:00.553Z,96546.56
2019-04-10T08:40:50.844Z,96549.39
2019-04-10T08:41:43.703Z,96549.69
2019-04-10T08:42:33.599Z,96546.02
2019-04-10T08:43:24.589Z,96543.91
2019-04-10T08:44:15.631Z,96547.09
2019-04-10T08:45:07.137Z,96542.61
2019-04-10T08:45:58.920Z,96546.38
2019-04-10T08:46:50.432Z,96541.53
2019-04-10T08:47:40.528Z,96548.63
2019-04-10T08:48:32.980Z,96541.75
2019-04-10T08:49:22.939Z,96541.60
2019-04-10T08:50:14.017Z,96541.48
2019-04-10T08:51:04.893Z,96544.64
2019-04-10T08:51:56.332Z,96540.52
2019-04-10T08:52:49.272Z,96544.30
2019-04-10T08:53:39.958Z,96546.69
2019-04-10T08:54:30.907Z,96536.69
2019-04-10T08:55:24.074Z,96545.61
2019-04-10T08:56:14.851Z,96544.30
2019-04-10T08:57:05.401Z,96544.95
2019-04-10T08:57:56.572Z,96536.92
2019-04-10T08:58:48.227Z,96544.25
2019-04-10T08:59:38.341Z,96544.47
2019-04-10T09:00:29.205Z,96545.84
2019-04-10T09:01:20.870Z,96548.82
2019-04-10T09:02:11.663Z,96545.84
2019-04-10T09:03:02.405Z,96536.44
2019-04-10T09:03:52.238Z,96543.32
2019-04-10T09:04:43.299Z,96542.16
2019-04-10T09:05:34.104Z,96542.59
2019-04-10T09:06:25.231Z,96535.13
2019-04-10T09:07:16.346Z,96533.18
2019-04-10T09:08:07.037Z,96537.75
2019-04-10T09:08:59.395Z,96539.55
2019-04-10T09:09:50.443Z,96534.72
2019-04-10T09:10:41.069Z,96537.88
2019-04-10T09:11:33.956Z,96529.50
2019-04-10T09:12:23.991Z,96538.75
2019-04-10T09:13:14.856Z,96526.23
2019-04-10T09:14:06.530Z,96532.16
2019-04-10T09:14:57.553Z,96526.88
2019-04-10T09:15:49.956Z,96534.20
2019-04-10T09:16:40.008Z,96532.44
2019-04-10T09:17:31.372Z,96540.57
2019-04-10T09:18:21.540Z,96532.72
2019-04-10T09:19:13.933Z,96540.22
2019-04-10T09:20:05.172Z,96536.44
2019-04-10T09:20:55.855Z,96533.69
2019-04-10T09:21:46.026Z,96534.42
2019-04-10T09:22:49.786Z,96538.33
2019-04-10T09:23:37.908Z,96539.26
2019-04-10T09:24:19.616Z,96532.77
2019-04-10T09:25:09.542Z,96536.44
2019-04-10T09:26:01.843Z,96536.80
2019-04-10T09:26:52.857Z,96529.34
2019-04-10T09:27:44.215Z,96533.05
2019-04-10T09:28:34.802Z,96536.58
2019-04-10T09:29:25.781Z,96536.38
2019-04-10T09:30:16.597Z,96536.58
2019-04-10T09:31:07.421Z,96533.82
2019-04-10T09:31:57.843Z,96529.12
2019-04-10T09:32:50.622Z,96534.84
2019-04-10T09:33:40.798Z,96541.95
2019-04-10T09:34:31.852Z,96529.78
2019-04-10T09:35:22.547Z,96534.33
2019-04-10T09:36:13.490Z,96532.59
2019-04-10T09:37:03.970Z,96542.08
2019-04-10T09:37:54.679Z,96532.44
2019-04-10T09:38:45.631Z,96530.71
2019-04-10T09:39:36.024Z,96527.03
2019-04-10T09:40:27.931Z,96532.09
2019-04-10T09:41:17.863Z,96529.91
2019-04-10T09:42:08.771Z,96534.04
2019-04-10T09:42:59.771Z,96537.59
2019-04-10T09:43:49.691Z,96540.57
2019-04-10T09:44:40.379Z,96528.41
2019-04-10T09:45:31.014Z,96540.22
2019-04-10T09:46:21.619Z,96533.91
2019-04-10T09:47:11.876Z,96539.61
2019-04-10T09:48:02.247Z,96533.33
2019-04-10T09:48:54.102Z,96536.85
2019-04-10T09:49:47.021Z,96541.59
2019-04-10T09:50:35.468Z,96534.10
2019-04-10T09:51:26.162Z,96538.04
2019-04-10T09:52:16.733Z,96535.64
2019-04-10T09:53:08.512Z,96536.80
2019-04-10T09:53:59.455Z,96545.44
2019-04-10T09:54:50.901Z,96542.23
2019-04-10T09:55:41.241Z,96547.73
2019-04-10T09:56:32.864Z,96547.16
2019-04-10T09:57:22.888Z,96544.41
2019-04-10T09:58:14.602Z,96544.19
2019-04-10T09:59:05.434Z,96544.41
2019-04-10T09:59:56.796Z,96545.78
2019-04-10T10:00:48.202Z,96553.69
2019-04-10T10:01:38.972Z,96545.63